Time;durP1;ratioP1;P1;durP2;ratioP2;P2;SDS_P1;SDS_P2;PMS_P1;PMS_P2;Temp;Humidity;BMP_temperature;BMP_pressure;BME280_temperature;BME280_humidity;BME280_pressure;Samples;Min_cycle;Max_cycle;Signal;HPM_P1;HPM_P2
2024/01/15 00:02:21;;;;;;;8.20;2.10;;;;;;;0.11;100.00;97025.33;109213;1255;68286;-61
2024/01/15 00:05:09;;;;;;;8.50;2.10;;;;;;;0.10;100.00;97020.18;109204;1257;72676;-63
2024/01/15 00:07:57;;;;;;;7.30;2.00;;;;;;;0.08;100.00;97023.19;109337;1255;58052;-62
2024/01/15 00:10:46;;;;;;;8.20;2.20;;;;;;;0.04;100.00;97023.13;109168;1255;58781;-62
2024/01/15 00:13:33;;;;;;;8.70;1.80;;;;;;;0.05;100.00;97018.55;109100;1255;72937;-61
2024/01/15 00:16:21;;;;;;;7.40;1.80;;;;;;;0.06;100.00;97016.17;109483;1252;67916;-63
2024/01/15 00:19:09;;;;;;;7.60;2.30;;;;;;;0.08;100.00;97011.48;109500;1251;71317;-62
2024/01/15 00:21:58;;;;;;;7.50;1.90;;;;;;;0.08;100.00;97009.02;109501;1252;58816;-62
2024/01/15 00:24:46;;;;;;;9.20;2.00;;;;;;;0.11;100.00;97007.05;109583;1252;60171;-64
2024/01/15 00:27:34;;;;;;;8.50;1.90;;;;;;;0.14;100.00;97002.64;109545;1252;73728;-62
2024/01/15 00:30:22;;;;;;;8.90;1.80;;;;;;;0.16;100.00;96990.98;109534;1252;67804;-64
2024/01/15 00:33:12;;;;;;;8.00;2.10;;;;;;;0.16;100.00;96984.66;109503;1252;71214;-64
2024/01/15 00:36:00;;;;;;;6.80;1.90;;;;;;;0.16;100.00;96975.80;109536;1251;57806;-63
2024/01/15 00:38:48;;;;;;;6.00;1.80;;;;;;;0.13;100.00;96971.80;109530;1252;59999;-63
2024/01/15 00:41:36;;;;;;;6.40;1.70;;;;;;;0.14;100.00;96965.34;109430;1252;71504;-63
2024/01/15 00:44:24;;;;;;;7.50;1.70;;;;;;;0.14;100.00;96953.47;109643;1251;66678;-62
2024/01/15 00:47:12;;;;;;;5.60;1.60;;;;;;;0.15;100.00;96949.34;109358;1253;72332;-63
2024/01/15 00:50:01;;;;;;;5.30;1.80;;;;;;;0.14;100.00;96949.27;109466;1253;57950;-63
2024/01/15 00:52:48;;;;;;;9.40;2.10;;;;;;;0.15;100.00;96943.27;109550;1252;58732;-64
2024/01/15 00:55:37;;;;;;;5.70;1.50;;;;;;;0.17;100.00;96938.56;109637;1252;71932;-64
2024/01/15 00:58:26;;;;;;;5.40;1.60;;;;;;;0.18;100.00;96940.38;109617;1253;66063;-62
2024/01/15 01:01:14;;;;;;;7.70;1.90;;;;;;;0.18;100.00;96934.15;109475;1252;71253;-63
2024/01/15 01:04:03;;;;;;;6.00;1.80;;;;;;;0.18;100.00;96931.48;109499;1251;58981;-64
2024/01/15 01:06:50;;;;;;;5.70;1.80;;;;;;;0.18;100.00;96927.35;109622;1251;58037;-62
2024/01/15 01:09:38;;;;;;;6.20;1.40;;;;;;;0.16;100.00;96921.57;109613;1252;72686;-64
2024/01/15 01:12:27;;;;;;;6.80;2.10;;;;;;;0.13;100.00;96918.47;109580;1252;69209;-63
2024/01/15 01:15:15;;;;;;;5.90;1.70;;;;;;;0.12;100.00;96916.33;109577;1252;71847;-63
2024/01/15 01:18:03;;;;;;;7.90;1.70;;;;;;;0.10;100.00;96908.25;109499;1252;58785;-63
2024/01/15 01:20:52;;;;;;;5.50;1.70;;;;;;;0.09;100.00;96908.02;109606;1252;58712;-63
2024/01/15 01:23:40;;;;;;;6.60;1.40;;;;;;;0.08;100.00;96901.27;108800;1252;1002393;-64
2024/01/15 01:26:28;;;;;;;8.00;2.10;;;;;;;0.09;100.00;96898.66;109482;1252;66728;-63
2024/01/15 01:29:16;;;;;;;7.30;2.00;;;;;;;0.08;100.00;96892.23;109598;1252;72567;-64
2024/01/15 01:32:03;;;;;;;5.70;1.70;;;;;;;0.08;100.00;96882.45;109544;1253;58439;-62
2024/01/15 01:34:51;;;;;;;7.70;1.90;;;;;;;0.07;100.00;96879.60;109600;1252;60128;-65
2024/01/15 01:37:39;;;;;;;5.60;1.70;;;;;;;0.08;100.00;96872.36;109572;1252;72155;-63
2024/01/15 01:40:27;;;;;;;5.60;1.60;;;;;;;0.08;100.00;96871.30;109564;1251;68971;-63
2024/01/15 01:43:15;;;;;;;6.70;1.60;;;;;;;0.06;100.00;96869.23;109506;1252;73709;-63
2024/01/15 01:46:03;;;;;;;6.50;1.60;;;;;;;0.06;100.00;96865.27;109586;1252;58500;-62
2024/01/15 01:48:51;;;;;;;6.50;1.80;;;;;;;0.06;100.00;96863.64;109357;1251;59407;-62
2024/01/15 01:51:39;;;;;;;7.50;1.80;;;;;;;0.08;100.00;96861.24;109616;1252;72905;-62
2024/01/15 01:54:31;;;;;;;6.50;1.70;;;;;;;0.08;100.00;96858.23;109642;1252;67848;-62
2024/01/15 01:57:19;;;;;;;6.00;1.60;;;;;;;0.08;100.00;96850.56;109531;1252;71256;-63
2024/01/15 02:00:08;;;;;;;5.80;1.60;;;;;;;0.09;100.00;96847.02;109619;1252;57372;-63
2024/01/15 02:02:59;;;;;;;6.50;1.50;;;;;;;0.08;100.00;96839.05;109595;1252;59026;-63
2024/01/15 02:05:49;;;;;;;5.30;1.90;;;;;;;0.02;100.00;96834.22;109617;1251;71786;-64
2024/01/15 02:08:38;;;;;;;7.60;1.90;;;;;;;-0.03;100.00;96827.94;109519;1252;67797;-62
2024/01/15 02:11:26;;;;;;;5.80;1.80;;;;;;;-0.07;100.00;96826.36;109464;1251;71419;-62
2024/01/15 02:14:15;;;;;;;7.10;1.80;;;;;;;-0.10;100.00;96819.16;109494;1251;58597;-61
2024/01/15 02:17:03;;;;;;;6.10;1.80;;;;;;;-0.14;100.00;96811.17;109493;1255;61051;-62
2024/01/15 02:19:51;;;;;;;5.90;1.60;;;;;;;-0.18;100.00;96806.95;109492;1253;71982;-63
2024/01/15 02:22:39;;;;;;;5.30;1.70;;;;;;;-0.23;100.00;96798.82;109596;1252;69088;-64
2024/01/15 02:25:27;;;;;;;5.80;1.80;;;;;;;-0.25;100.00;96795.05;108809;1251;1002239;-63
2024/01/15 02:28:17;;;;;;;6.20;1.70;;;;;;;-0.28;100.00;96793.33;109500;1252;58693;-62
2024/01/15 02:31:05;;;;;;;5.50;1.90;;;;;;;-0.30;100.00;96789.34;109414;1252;60474;-61
2024/01/15 02:33:53;;;;;;;7.90;2.20;;;;;;;-0.28;100.00;96780.50;109524;1251;71767;-62
2024/01/15 02:36:41;;;;;;;7.00;2.00;;;;;;;-0.27;100.00;96775.83;109630;1252;69010;-63
2024/01/15 02:39:29;;;;;;;6.10;1.80;;;;;;;-0.26;100.00;96772.13;109545;1251;72413;-63
2024/01/15 02:42:17;;;;;;;5.60;1.80;;;;;;;-0.29;100.00;96766.98;109541;1251;57907;-62
2024/01/15 02:45:06;;;;;;;6.00;1.80;;;;;;;-0.36;100.00;96759.40;109618;1252;59282;-64
2024/01/15 02:47:54;;;;;;;7.20;2.30;;;;;;;-0.37;100.00;96762.01;108037;1252;2002455;-62
2024/01/15 02:50:43;;;;;;;5.70;2.20;;;;;;;-0.39;100.00;96760.30;109608;1251;68135;-62
2024/01/15 02:53:31;;;;;;;6.60;2.10;;;;;;;-0.42;100.00;96760.73;109560;1253;72658;-62
2024/01/15 02:56:19;;;;;;;6.10;2.20;;;;;;;-0.51;100.00;96743.70;109513;1252;58826;-62
2024/01/15 02:59:06;;;;;;;5.60;1.70;;;;;;;-0.48;100.00;96738.48;109534;1252;60140;-63
2024/01/15 03:01:54;;;;;;;6.20;2.10;;;;;;;-0.45;100.00;96737.25;109572;1252;74080;-63
2024/01/15 03:04:45;;;;;;;7.30;2.00;;;;;;;-0.44;100.00;96727.64;109521;1251;66282;-62
2024/01/15 03:07:33;;;;;;;6.90;2.30;;;;;;;-0.42;100.00;96720.88;109520;1252;72385;-64
2024/01/15 03:10:21;;;;;;;6.90;2.20;;;;;;;-0.40;100.00;96723.94;109554;1252;58493;-63
2024/01/15 03:13:09;;;;;;;5.90;2.20;;;;;;;-0.42;100.00;96712.50;109611;1251;60211;-61
2024/01/15 03:15:56;;;;;;;6.70;2.20;;;;;;;-0.44;100.00;96704.98;109600;1251;72797;-64
2024/01/15 03:18:45;;;;;;;6.20;2.30;;;;;;;-0.44;100.00;96701.52;109520;1252;65629;-62
2024/01/15 03:21:32;;;;;;;6.30;2.00;;;;;;;-0.48;100.00;96697.11;109409;1251;72885;-63
2024/01/15 03:24:21;;;;;;;5.80;1.90;;;;;;;-0.51;100.00;96694.08;109374;1251;58572;-63
2024/01/15 03:27:09;;;;;;;6.30;2.10;;;;;;;-0.52;100.00;96690.16;108865;1251;1002574;-63
2024/01/15 03:29:56;;;;;;;5.60;2.00;;;;;;;-0.54;100.00;96684.07;109570;1252;71706;-63
2024/01/15 03:32:44;;;;;;;6.80;2.20;;;;;;;-0.51;100.00;96689.36;109522;1252;67970;-63
2024/01/15 03:35:32;;;;;;;6.60;2.20;;;;;;;-0.53;100.00;96680.30;109488;1252;72696;-64
2024/01/15 03:38:19;;;;;;;6.20;1.90;;;;;;;-0.51;100.00;96676.70;109600;1252;58510;-63
2024/01/15 03:41:07;;;;;;;6.20;2.10;;;;;;;-0.50;100.00;96675.03;109534;1253;60041;-63
2024/01/15 03:43:56;;;;;;;5.90;2.10;;;;;;;-0.50;100.00;96673.96;109561;1252;71716;-64
2024/01/15 03:46:44;;;;;;;6.00;2.00;;;;;;;-0.50;100.00;96667.49;108758;1252;1002881;-64
2024/01/15 03:49:31;;;;;;;5.60;2.30;;;;;;;-0.50;100.00;96664.71;109583;1252;73714;-64
2024/01/15 03:52:19;;;;;;;5.90;2.20;;;;;;;-0.49;100.00;96662.09;109598;1252;58466;-64
2024/01/15 03:55:08;;;;;;;6.20;2.20;;;;;;;-0.52;100.00;96655.70;109586;1253;58737;-63
2024/01/15 03:57:55;;;;;;;5.90;2.10;;;;;;;-0.54;100.00;96652.02;109510;1252;71678;-63
2024/01/15 04:00:44;;;;;;;6.40;2.30;;;;;;;-0.56;100.00;96647.35;109539;1253;68635;-62
2024/01/15 04:03:31;;;;;;;5.60;2.00;;;;;;;-0.55;100.00;96644.27;109589;1252;72789;-63
2024/01/15 04:06:19;;;;;;;6.30;2.40;;;;;;;-0.56;100.00;96645.39;109568;1252;58812;-62
2024/01/15 04:09:07;;;;;;;6.10;2.10;;;;;;;-0.56;100.00;96639.98;108797;1251;1002412;-63
2024/01/15 04:11:55;;;;;;;5.60;2.00;;;;;;;-0.54;100.00;96637.92;109640;1252;72778;-62
2024/01/15 04:14:43;;;;;;;5.80;2.00;;;;;;;-0.56;100.00;96634.21;109491;1251;66695;-63
2024/01/15 04:17:30;;;;;;;7.20;2.80;;;;;;;-0.55;100.00;96628.27;109379;1253;72483;-62
2024/01/15 04:20:18;;;;;;;5.80;2.20;;;;;;;-0.55;100.00;96627.06;109558;1253;59082;-62
2024/01/15 04:23:09;;;;;;;6.00;2.20;;;;;;;-0.54;100.00;96615.98;109567;1251;59468;-61
2024/01/15 04:25:58;;;;;;;6.00;2.20;;;;;;;-0.55;100.00;96615.39;109565;1251;71536;-61
2024/01/15 04:28:45;;;;;;;6.00;2.40;;;;;;;-0.55;100.00;96611.33;109550;1252;67902;-63
2024/01/15 04:31:33;;;;;;;6.90;2.50;;;;;;;-0.54;100.00;96609.49;109609;1251;72416;-62
2024/01/15 04:34:21;;;;;;;5.60;1.90;;;;;;;-0.51;100.00;96606.34;109581;1252;58728;-61
2024/01/15 04:37:09;;;;;;;6.40;2.20;;;;;;;-0.51;100.00;96604.02;109582;1252;58928;-62
2024/01/15 04:39:57;;;;;;;6.00;2.10;;;;;;;-0.52;100.00;96598.20;109513;1253;71194;-62
2024/01/15 04:42:45;;;;;;;6.00;2.20;;;;;;;-0.53;100.00;96594.42;109652;1252;67896;-62
2024/01/15 04:45:33;;;;;;;6.00;2.40;;;;;;;-0.51;100.00;96595.35;109618;1252;71237;-62
2024/01/15 04:48:22;;;;;;;6.70;2.40;;;;;;;-0.53;100.00;96590.44;109551;1252;57704;-63
2024/01/15 04:51:11;;;;;;;5.80;2.30;;;;;;;-0.49;100.00;96590.85;109585;1252;59250;-62
2024/01/15 04:53:58;;;;;;;5.40;1.80;;;;;;;-0.47;100.00;96586.79;108862;1252;1002942;-66
2024/01/15 04:56:46;;;;;;;6.70;2.00;;;;;;;-0.45;100.00;96586.63;109664;1253;66602;-62
2024/01/15 04:59:34;;;;;;;5.50;1.90;;;;;;;-0.44;100.00;96583.42;109723;1253;72415;-63
2024/01/15 05:02:22;;;;;;;5.50;1.90;;;;;;;-0.43;100.00;96580.36;109744;1252;57344;-63
2024/01/15 05:05:11;;;;;;;5.70;1.90;;;;;;;-0.39;100.00;96578.97;109603;1252;60293;-63
2024/01/15 05:07:59;;;;;;;5.60;2.00;;;;;;;-0.37;100.00;96576.13;109542;1252;71759;-63
2024/01/15 05:10:47;;;;;;;7.90;2.20;;;;;;;-0.42;100.00;96574.89;109483;1251;67823;-63
2024/01/15 05:13:36;;;;;;;5.20;1.80;;;;;;;-0.37;100.00;96574.79;109445;1252;71550;-63
2024/01/15 05:16:24;;;;;;;5.50;1.80;;;;;;;-0.38;100.00;96580.61;109481;1252;59973;-65
2024/01/15 05:19:12;;;;;;;4.80;1.40;;;;;;;-0.37;100.00;96569.50;109450;1252;58986;-63
2024/01/15 05:22:01;;;;;;;5.30;1.50;;;;;;;-0.39;100.00;96567.46;109484;1252;73209;-63
2024/01/15 05:24:48;;;;;;;5.60;1.50;;;;;;;-0.44;100.00;96565.07;109555;1254;68656;-63
2024/01/15 05:27:36;;;;;;;6.10;1.90;;;;;;;-0.46;100.00;96567.54;109386;1255;71627;-63
2024/01/15 05:30:25;;;;;;;5.50;1.50;;;;;;;-0.48;100.00;96567.59;109491;1253;58923;-64
2024/01/15 05:33:13;;;;;;;7.20;1.50;;;;;;;-0.53;100.00;96566.57;109487;1253;60258;-63
2024/01/15 05:36:02;;;;;;;7.00;1.80;;;;;;;-0.55;100.00;96566.59;109564;1253;71837;-65
2024/01/15 05:38:50;;;;;;;7.70;2.00;;;;;;;-0.58;100.00;96565.81;109556;1252;68679;-64
2024/01/15 05:41:38;;;;;;;5.90;1.70;;;;;;;-0.62;100.00;96565.86;109438;1253;71873;-63
2024/01/15 05:44:26;;;;;;;6.70;1.50;;;;;;;-0.69;100.00;96568.04;109577;1252;57399;-62
2024/01/15 05:47:14;;;;;;;6.20;1.80;;;;;;;-0.75;100.00;96567.52;109639;1252;59961;-62
2024/01/15 05:50:02;;;;;;;5.80;1.40;;;;;;;-0.80;100.00;96565.66;109526;1252;73796;-63
2024/01/15 05:52:50;;;;;;;4.70;1.30;;;;;;;-0.87;100.00;96567.27;109503;1252;67576;-63
2024/01/15 05:55:38;;;;;;;5.80;1.50;;;;;;;-0.95;100.00;96556.83;109480;1252;73679;-66
2024/01/15 05:58:26;;;;;;;6.50;1.30;;;;;;;-1.05;100.00;96558.39;108544;1252;1002455;-66
2024/01/15 06:01:14;;;;;;;8.90;1.70;;;;;;;-1.13;100.00;96555.44;109571;1251;60457;-64
2024/01/15 06:04:02;;;;;;;5.80;1.50;;;;;;;-1.21;100.00;96554.55;109632;1252;72796;-65
2024/01/15 06:06:50;;;;;;;6.30;1.30;;;;;;;-1.27;100.00;96557.86;109615;1252;66494;-64
2024/01/15 06:09:38;;;;;;;6.60;1.70;;;;;;;-1.30;100.00;96557.09;109548;1251;72603;-66
2024/01/15 06:12:28;;;;;;;5.30;1.40;;;;;;;-1.34;100.00;96550.32;109593;1251;57273;-65
2024/01/15 06:15:16;;;;;;;7.30;1.60;;;;;;;-1.40;100.00;96543.65;109532;1253;58767;-63
2024/01/15 06:18:04;;;;;;;7.70;1.70;;;;;;;-1.46;100.00;96541.56;109651;1253;73627;-67
2024/01/15 06:20:53;;;;;;;7.80;1.60;;;;;;;-1.50;100.00;96542.98;109605;1251;68002;-63
2024/01/15 06:23:41;;;;;;;7.30;1.90;;;;;;;-1.53;100.00;96540.63;108731;1253;1002433;-64
2024/01/15 06:26:29;;;;;;;7.40;1.80;;;;;;;-1.54;100.00;96538.37;109331;1253;58486;-64
2024/01/15 06:29:17;;;;;;;7.20;1.50;;;;;;;-1.50;100.00;96540.28;109326;1253;60464;-63
2024/01/15 06:32:05;;;;;;;6.90;1.40;;;;;;;-1.47;100.00;96537.61;109594;1251;72672;-63
2024/01/15 06:34:53;;;;;;;7.00;1.70;;;;;;;-1.48;100.00;96529.86;109528;1251;68710;-63
2024/01/15 06:37:40;;;;;;;6.10;1.80;;;;;;;-1.42;100.00;96528.19;108727;1253;1002334;-63
2024/01/15 06:40:28;;;;;;;7.50;1.40;;;;;;;-1.39;100.00;96528.73;109588;1251;59857;-64
2024/01/15 06:43:17;;;;;;;7.80;1.40;;;;;;;-1.34;100.00;96529.20;109589;1251;59036;-63
2024/01/15 06:46:05;;;;;;;7.80;1.70;;;;;;;-1.26;100.00;96527.36;109333;1250;74040;-63
2024/01/15 06:48:55;;;;;;;9.20;2.10;;;;;;;-1.21;100.00;96525.81;109600;1250;67919;-63
2024/01/15 06:51:43;;;;;;;7.30;1.80;;;;;;;-1.18;100.00;96519.66;109382;1251;72065;-63
2024/01/15 06:54:35;;;;;;;10.80;1.90;;;;;;;-1.21;100.00;96517.19;109493;1251;58620;-64
2024/01/15 06:57:23;;;;;;;6.10;1.50;;;;;;;-1.16;100.00;96518.98;109596;1250;60277;-63
2024/01/15 07:00:13;;;;;;;6.70;1.80;;;;;;;-1.17;100.00;96517.64;109346;1251;73126;-65
2024/01/15 07:03:00;;;;;;;8.60;2.10;;;;;;;-1.18;100.00;96510.46;109407;1250;66870;-65
2024/01/15 07:05:49;;;;;;;6.40;1.70;;;;;;;-1.21;100.00;96510.03;109389;1251;72490;-62
2024/01/15 07:08:40;;;;;;;6.90;2.00;;;;;;;-1.22;100.00;96508.15;109554;1251;57579;-63
2024/01/15 07:11:28;;;;;;;8.40;2.00;;;;;;;-1.19;100.00;96503.46;109341;1251;60183;-63
2024/01/15 07:14:16;;;;;;;8.30;1.90;;;;;;;-1.17;100.00;96499.91;109591;1251;73964;-62
2024/01/15 07:17:04;;;;;;;7.40;2.60;;;;;;;-1.10;100.00;96500.92;109657;1251;67645;-62
2024/01/15 07:19:52;;;;;;;7.50;2.10;;;;;;;-1.07;100.00;96495.42;109309;1253;71171;-63
2024/01/15 07:22:41;;;;;;;6.60;2.20;;;;;;;-1.03;100.00;96494.54;109296;1250;57342;-63
2024/01/15 07:25:29;;;;;;;9.10;3.40;;;;;;;-1.03;100.00;96490.56;109571;1251;59004;-64
2024/01/15 07:28:17;;;;;;;9.00;2.80;;;;;;;-1.03;100.00;96491.71;109559;1251;73135;-63
2024/01/15 07:31:06;;;;;;;9.00;2.90;;;;;;;-1.06;100.00;96492.31;109516;1251;66408;-63
2024/01/15 07:33:54;;;;;;;10.60;3.20;;;;;;;-1.09;100.00;96493.67;109585;1251;72607;-64
2024/01/15 07:36:43;;;;;;;10.30;2.60;;;;;;;-1.10;100.00;96487.96;109593;1251;57519;-63
2024/01/15 07:39:31;;;;;;;10.10;2.80;;;;;;;-1.08;100.00;96486.14;109520;1251;60234;-63
2024/01/15 07:42:19;;;;;;;11.90;3.00;;;;;;;-1.07;100.00;96485.28;109567;1251;72819;-63
2024/01/15 07:45:07;;;;;;;7.60;2.30;;;;;;;-1.04;100.00;96485.89;109674;1251;67997;-64
2024/01/15 07:47:55;;;;;;;9.80;3.10;;;;;;;-1.00;100.00;96487.16;109780;1251;71311;-69
2024/01/15 07:50:43;;;;;;;10.30;3.40;;;;;;;-0.94;100.00;96483.98;109753;1251;57424;-69
2024/01/15 07:53:31;;;;;;;10.80;3.60;;;;;;;-0.86;100.00;96475.32;109608;1251;60436;-69
2024/01/15 07:56:19;;;;;;;9.50;3.10;;;;;;;-0.81;100.00;96471.52;109682;1251;71418;-70
2024/01/15 07:59:07;;;;;;;9.50;2.50;;;;;;;-0.72;100.00;96471.48;109616;1251;66366;-70
2024/01/15 08:01:58;;;;;;;9.10;2.60;;;;;;;-0.64;100.00;96474.76;109661;1251;71465;-71
2024/01/15 08:04:46;;;;;;;7.50;2.80;;;;;;;-0.57;100.00;96472.71;109564;1251;57322;-63
2024/01/15 08:07:34;;;;;;;9.30;2.40;;;;;;;-0.51;100.00;96473.63;109662;1251;59032;-65
2024/01/15 08:10:22;;;;;;;7.70;2.50;;;;;;;-0.43;100.00;96470.16;109527;1251;73085;-64
2024/01/15 08:13:10;;;;;;;8.80;2.90;;;;;;;-0.37;100.00;96463.50;109605;1251;67901;-63
2024/01/15 08:15:58;;;;;;;7.50;2.20;;;;;;;-0.35;100.00;96464.69;109553;1252;72861;-66
2024/01/15 08:18:47;;;;;;;10.50;2.40;;;;;;;-0.38;100.00;96461.08;109610;1251;59073;-63
2024/01/15 08:21:35;;;;;;;7.30;2.00;;;;;;;-0.34;100.00;96452.09;109667;1251;58701;-64
2024/01/15 08:24:23;;;;;;;6.50;1.80;;;;;;;-0.19;100.00;96461.69;109600;1251;71852;-64
2024/01/15 08:27:11;;;;;;;6.90;1.70;;;;;;;-0.07;100.00;96458.02;109592;1251;66285;-63
2024/01/15 08:29:59;;;;;;;5.80;1.70;;;;;;;0.09;100.00;96457.36;109583;1251;73363;-64
2024/01/15 08:32:47;;;;;;;5.60;1.80;;;;;;;0.44;100.00;96457.23;109588;1251;59684;-63
2024/01/15 08:35:35;;;;;;;7.30;1.90;;;;;;;1.61;100.00;96452.35;109411;1251;58748;-63
2024/01/15 08:38:25;;;;;;;6.40;1.70;;;;;;;2.17;97.61;96449.17;109592;1251;74001;-64
2024/01/15 08:41:13;;;;;;;7.90;2.00;;;;;;;1.92;95.43;96452.06;109505;1251;67654;-63
2024/01/15 08:44:02;;;;;;;7.90;1.80;;;;;;;1.63;98.12;96442.58;109563;1253;70092;-61
2024/01/15 08:46:51;;;;;;;7.70;2.10;;;;;;;1.47;99.82;96447.81;109555;1251;57333;-64
2024/01/15 08:49:40;;;;;;;6.80;2.10;;;;;;;1.17;100.00;96446.73;109593;1252;58739;-63
2024/01/15 08:52:30;;;;;;;6.20;1.70;;;;;;;0.93;100.00;96464.33;109610;1251;73094;-65
2024/01/15 08:55:18;;;;;;;6.70;2.10;;;;;;;0.65;100.00;96452.69;109343;1255;68202;-63
2024/01/15 08:58:06;;;;;;;7.20;2.10;;;;;;;0.44;100.00;96451.73;109588;1252;72704;-64
2024/01/15 09:00:55;;;;;;;6.20;1.90;;;;;;;0.28;100.00;96450.22;109350;1253;57332;-63
2024/01/15 09:03:42;;;;;;;8.00;2.00;;;;;;;0.16;100.00;96443.52;109490;1253;60086;-62
2024/01/15 09:06:31;;;;;;;6.40;2.00;;;;;;;0.03;100.00;96438.45;109503;1253;74035;-64
2024/01/15 09:09:20;;;;;;;7.60;2.30;;;;;;;-0.08;100.00;96433.85;109612;1253;67898;-62
2024/01/15 09:12:08;;;;;;;7.90;2.00;;;;;;;-0.14;100.00;96436.31;109180;1254;73457;-64
2024/01/15 09:14:56;;;;;;;7.60;2.50;;;;;;;-0.10;100.00;96436.61;109337;1253;57686;-62
2024/01/15 09:17:44;;;;;;;7.00;1.90;;;;;;;0.52;100.00;96437.34;109639;1255;59499;-63
2024/01/15 09:20:32;;;;;;;6.70;2.00;;;;;;;2.59;100.00;96435.04;109588;1253;74005;-63
2024/01/15 09:23:20;;;;;;;6.20;2.10;;;;;;;4.54;93.33;96427.98;109295;1255;67558;-64
2024/01/15 09:26:09;;;;;;;8.00;2.20;;;;;;;6.07;84.30;96423.54;109384;1253;73567;-64
2024/01/15 09:28:57;;;;;;;7.10;1.90;;;;;;;7.75;77.10;96409.23;109292;1253;57614;-65
2024/01/15 09:31:45;;;;;;;5.70;1.50;;;;;;;8.96;64.66;96401.85;109156;1252;242425;-64
2024/01/15 09:34:34;;;;;;;5.40;1.50;;;;;;;8.70;61.64;96408.81;109583;1254;72987;-64
2024/01/15 09:37:23;;;;;;;6.00;1.60;;;;;;;7.05;64.14;96413.73;109475;1252;68921;-65
2024/01/15 09:40:34;;;;;;;6.30;1.30;;;;;;;5.47;69.16;96408.34;109565;1254;73675;-63
2024/01/15 09:43:23;;;;;;;7.00;1.60;;;;;;;4.36;75.32;96407.59;109284;1253;57466;-63
2024/01/15 09:46:11;;;;;;;6.90;2.10;;;;;;;3.88;78.79;96405.92;109556;1253;60431;-64
2024/01/15 09:49:00;;;;;;;7.40;1.90;;;;;;;3.62;79.84;96408.06;109612;1253;72783;-63
2024/01/15 09:51:49;;;;;;;7.90;2.90;;;;;;;3.84;81.04;96405.27;109587;1253;67786;-62
2024/01/15 09:54:50;;;;;;;10.70;4.10;;;;;;;4.24;79.55;96392.23;109457;1254;72814;-71
2024/01/15 09:57:39;;;;;;;10.80;3.70;;;;;;;3.99;78.01;96395.26;109411;1253;57458;-70
2024/01/15 10:00:29;;;;;;;10.70;3.50;;;;;;;3.53;78.32;96393.02;109542;1253;59042;-69
2024/01/15 10:03:17;;;;;;;7.60;2.20;;;;;;;2.98;79.65;96391.44;109378;1252;74034;-64
2024/01/15 10:06:08;;;;;;;6.80;2.00;;;;;;;2.53;81.69;96398.87;109413;1253;68075;-63
2024/01/15 10:09:00;;;;;;;6.70;1.50;;;;;;;2.11;83.44;96394.84;109469;1252;71488;-64
2024/01/15 10:11:48;;;;;;;9.30;2.00;;;;;;;1.77;85.30;96391.98;109528;1251;58178;-63
2024/01/15 10:14:36;;;;;;;7.50;2.00;;;;;;;3.78;83.03;96377.40;109490;1251;59235;-64
2024/01/15 10:17:27;;;;;;;8.80;2.20;;;;;;;6.46;71.96;96371.25;109196;1255;71695;-64
2024/01/15 10:20:15;;;;;;;7.80;2.50;;;;;;;8.37;61.78;96360.33;109243;1256;68669;-62
2024/01/15 10:23:04;;;;;;;7.40;2.00;;;;;;;9.37;56.40;96351.47;109038;1256;73423;-62
2024/01/15 10:25:51;;;;;;;8.20;1.80;;;;;;;8.32;56.36;96355.73;109122;1256;58654;-63
2024/01/15 10:28:40;;;;;;;6.50;2.00;;;;;;;7.27;59.13;96354.18;109216;1257;60062;-63
2024/01/15 10:31:28;;;;;;;7.00;2.00;;;;;;;7.47;58.99;96354.70;109206;1255;73613;-64
2024/01/15 10:34:19;;;;;;;6.50;1.80;;;;;;;6.29;60.25;96353.25;109286;1256;66756;-62
2024/01/15 10:37:09;;;;;;;6.40;1.50;;;;;;;4.88;66.69;96357.34;109145;1256;73016;-62
2024/01/15 10:39:57;;;;;;;5.60;1.40;;;;;;;3.85;73.03;96365.71;109017;1258;58228;-64
2024/01/15 10:42:47;;;;;;;6.40;1.80;;;;;;;2.92;78.68;96378.62;109168;1256;59099;-63
2024/01/15 10:45:35;;;;;;;6.30;1.70;;;;;;;2.08;85.73;96388.42;109073;1256;73662;-64
2024/01/15 10:48:23;;;;;;;7.30;1.50;;;;;;;1.43;90.92;96384.83;109380;1253;66479;-62
2024/01/15 10:51:11;;;;;;;10.40;2.20;;;;;;;0.77;97.16;96389.96;108803;1253;1002160;-64
2024/01/15 10:54:01;;;;;;;6.60;1.90;;;;;;;0.44;99.51;96384.23;109353;1253;59448;-63
2024/01/15 10:56:53;;;;;;;6.70;2.10;;;;;;;0.38;100.00;96383.75;109428;1253;60819;-63
2024/01/15 10:59:41;;;;;;;6.80;2.10;;;;;;;0.38;100.00;96389.30;109396;1253;72831;-62
2024/01/15 11:02:30;;;;;;;7.90;1.80;;;;;;;0.43;100.00;96385.35;109571;1252;67868;-65
2024/01/15 11:05:22;;;;;;;7.90;2.00;;;;;;;0.49;99.97;96378.64;109571;1252;72823;-62
2024/01/15 11:08:10;;;;;;;8.50;2.20;;;;;;;0.47;99.66;96374.44;109546;1254;57211;-63
2024/01/15 11:11:00;;;;;;;8.40;2.00;;;;;;;0.48;99.43;96373.89;109401;1254;61506;-65
2024/01/15 11:13:51;;;;;;;7.40;2.00;;;;;;;0.38;99.14;96372.87;109490;1252;72751;-64
2024/01/15 11:16:59;;;;;;;7.20;1.90;;;;;;;0.36;99.91;96373.49;109350;1254;69073;-61
2024/01/15 11:19:53;;;;;;;8.80;2.50;;;;;;;0.36;99.92;96368.23;109254;1253;70443;-63
2024/01/15 11:22:49;;;;;;;8.20;2.10;;;;;;;0.30;100.00;96368.98;109466;1253;59559;-62
2024/01/15 11:25:38;;;;;;;7.90;2.50;;;;;;;0.20;100.00;96365.00;108553;1253;1002361;-64
2024/01/15 11:28:48;;;;;;;6.90;1.80;;;;;;;0.18;100.00;96362.74;109315;1253;74075;-63
2024/01/15 11:31:39;;;;;;;6.50;1.80;;;;;;;0.10;100.00;96365.73;109569;1254;66903;-65
2024/01/15 11:34:58;;;;;;;6.60;1.80;;;;;;;0.05;100.00;96355.98;109527;1254;72565;-63
2024/01/15 11:37:50;;;;;;;5.20;1.40;;;;;;;0.13;100.00;96342.85;109322;1254;57450;-63
2024/01/15 11:40:42;;;;;;;7.50;2.00;;;;;;;0.28;100.00;96339.55;109510;1253;60156;-65
2024/01/15 11:43:32;;;;;;;7.30;2.10;;;;;;;0.69;100.00;96337.81;109465;1253;72969;-64
2024/01/15 11:46:20;;;;;;;9.60;2.70;;;;;;;1.78;97.26;96339.72;109466;1253;68947;-62
2024/01/15 11:49:12;;;;;;;7.20;2.20;;;;;;;2.43;91.15;96331.93;109459;1254;72449;-63
2024/01/15 11:52:02;;;;;;;6.70;1.60;;;;;;;2.20;88.41;96322.52;109455;1254;57360;-64
2024/01/15 11:55:05;;;;;;;6.20;1.50;;;;;;;1.87;88.09;96329.54;109277;1253;60221;-62
2024/01/15 11:57:54;;;;;;;6.20;1.50;;;;;;;1.53;89.33;96335.18;109262;1253;73764;-63
2024/01/15 12:00:49;;;;;;;6.40;1.60;;;;;;;1.16;90.59;96323.49;109434;1253;68695;-63
2024/01/15 12:03:38;;;;;;;5.70;1.60;;;;;;;1.10;91.79;96329.17;109455;1252;73442;-63
2024/01/15 12:06:26;;;;;;;5.50;1.40;;;;;;;0.85;91.80;96314.71;109501;1253;57314;-65
2024/01/15 12:09:13;;;;;;;6.70;1.80;;;;;;;0.70;92.74;96313.70;109530;1254;61052;-62
2024/01/15 12:12:12;;;;;;;5.20;1.40;;;;;;;0.62;93.80;96312.65;109572;1253;72988;-64
2024/01/15 12:15:03;;;;;;;8.10;1.90;;;;;;;0.49;94.74;96314.27;109430;1253;67747;-63
2024/01/15 12:17:52;;;;;;;7.80;2.00;;;;;;;0.39;95.61;96309.36;108734;1253;1002579;-63
2024/01/15 12:20:40;;;;;;;7.50;1.90;;;;;;;0.40;96.25;96314.45;109511;1251;58204;-62
2024/01/15 12:23:28;;;;;;;5.90;1.60;;;;;;;0.26;97.13;96317.70;108850;1254;1002823;-63
2024/01/15 12:26:16;;;;;;;7.10;1.80;;;;;;;0.09;98.16;96321.23;109563;1252;71816;-63
2024/01/15 12:29:07;;;;;;;6.00;1.70;;;;;;;0.03;99.14;96318.89;109480;1253;66701;-63
2024/01/15 12:31:55;;;;;;;5.40;1.50;;;;;;;-0.01;99.99;96313.23;109526;1253;72319;-63
2024/01/15 12:34:44;;;;;;;6.00;1.90;;;;;;;0.02;100.00;96312.30;109517;1252;57330;-64
2024/01/15 12:37:32;;;;;;;7.00;2.00;;;;;;;0.04;100.00;96301.16;109555;1253;58769;-62
2024/01/15 12:40:22;;;;;;;7.90;2.00;;;;;;;0.09;100.00;96301.75;109552;1253;70809;-63
2024/01/15 12:43:11;;;;;;;6.80;2.10;;;;;;;0.12;100.00;96301.76;109403;1254;66974;-63
2024/01/15 12:45:58;;;;;;;8.30;2.10;;;;;;;0.22;100.00;96296.64;109530;1252;72553;-63
2024/01/15 12:48:47;;;;;;;7.60;2.10;;;;;;;0.26;100.00;96294.39;108623;1253;1003062;-63
2024/01/15 12:51:35;;;;;;;6.00;1.90;;;;;;;0.17;100.00;96291.77;109574;1254;58258;-63
2024/01/15 12:54:23;;;;;;;6.30;1.70;;;;;;;0.09;100.00;96298.19;109415;1253;71797;-64
2024/01/15 12:57:12;;;;;;;7.60;2.00;;;;;;;0.09;99.85;96299.10;109442;1253;68648;-65
2024/01/15 13:00:00;;;;;;;5.70;1.40;;;;;;;0.29;99.39;96296.32;109494;1252;73511;-63
2024/01/15 13:02:49;;;;;;;5.60;1.30;;;;;;;0.43;96.80;96294.00;109434;1252;57312;-64